createdAt,value
2023-05-10T02:55:48.743Z,3.30
2023-05-10T02:58:17.172Z,3.30
2023-05-10T03:00:44.996Z,3.00
2023-05-10T03:03:13.432Z,3.20
2023-05-10T03:05:41.355Z,3.10
2023-05-10T03:08:38.300Z,3.00
2023-05-10T03:12:10.243Z,3.10
2023-05-10T03:15:36.559Z,3.10
2023-05-10T03:18:11.013Z,2.70
2023-05-10T03:20:44.170Z,3.30
2023-05-10T03:23:25.272Z,3.30
2023-05-10T03:25:54.034Z,3.20
2023-05-10T03:28:23.052Z,3.60
2023-05-10T03:30:52.742Z,3.20
2023-05-10T03:33:22.760Z,3.50
2023-05-10T03:35:51.610Z,3.20
2023-05-10T03:38:19.469Z,3.30
2023-05-10T03:40:47.645Z,3.80
2023-05-10T03:43:17.833Z,2.80
2023-05-10T03:45:45.778Z,3.00
2023-05-10T03:48:14.908Z,3.20
2023-05-10T03:50:43.771Z,3.10
2023-05-10T03:53:11.866Z,3.20
2023-05-10T03:55:42.149Z,4.10
2023-05-10T03:58:13.430Z,4.00
2023-05-10T04:00:46.122Z,4.30
2023-05-10T04:03:15.266Z,4.40
2023-05-10T04:05:43.251Z,3.90
2023-05-10T04:08:11.551Z,3.90
2023-05-10T04:10:39.474Z,4.20
2023-05-10T04:13:07.439Z,4.20
2023-05-10T04:15:36.584Z,4.70
2023-05-10T04:18:06.516Z,4.10
2023-05-10T04:20:37.968Z,3.90
2023-05-10T04:23:05.878Z,4.20
2023-05-10T04:25:37.709Z,4.60
2023-05-10T04:28:07.818Z,5.00
2023-05-10T04:30:37.010Z,4.80
2023-05-10T04:33:05.196Z,5.40
2023-05-10T04:35:33.292Z,5.20
2023-05-10T04:38:01.180Z,5.90
2023-05-10T04:40:29.034Z,5.90
2023-05-10T04:42:56.983Z,6.80
2023-05-10T04:45:24.877Z,6.20
2023-05-10T04:47:52.844Z,5.80
2023-05-10T04:50:21.338Z,6.00
2023-05-10T04:52:51.310Z,6.50
2023-05-10T04:55:20.337Z,5.60
2023-05-10T04:57:50.856Z,5.40
2023-05-10T05:00:20.114Z,5.10
2023-05-10T05:02:49.596Z,5.60
2023-05-10T05:05:20.386Z,5.20
2023-05-10T05:07:51.940Z,4.50
2023-05-10T05:10:25.372Z,5.20
2023-05-10T05:12:54.187Z,4.30
2023-05-10T05:15:22.123Z,5.10
2023-05-10T05:17:50.258Z,4.60
2023-05-10T05:20:22.150Z,3.60
2023-05-10T05:22:52.454Z,2.50
2023-05-10T05:25:20.510Z,3.30
2023-05-10T05:27:51.022Z,2.70
2023-05-10T05:30:19.488Z,2.80
2023-05-10T05:32:48.215Z,2.40
2023-05-10T05:35:16.551Z,3.00
2023-05-10T05:37:44.828Z,2.70
2023-05-10T05:40:14.965Z,2.50
2023-05-10T05:42:42.943Z,2.10
2023-05-10T05:45:15.450Z,2.30
2023-05-10T05:47:46.149Z,2.20
2023-05-10T05:50:18.084Z,2.00
2023-05-10T05:52:48.626Z,2.40
2023-05-10T05:55:34.010Z,2.20
2023-05-10T05:58:58.082Z,2.00
2023-05-10T06:01:55.007Z,2.10
2023-05-10T06:04:28.708Z,2.10
2023-05-10T06:07:15.489Z,1.90
2023-05-10T06:20:25.090Z,2.40
2023-05-10T06:23:31.747Z,2.30
2023-05-10T06:26:47.483Z,2.70
2023-05-10T06:29:16.314Z,2.30
2023-05-10T06:31:44.127Z,2.10
2023-05-10T06:34:13.304Z,2.10
2023-05-10T06:36:43.736Z,2.30
2023-05-10T06:39:12.997Z,1.60
2023-05-10T06:41:41.509Z,3.10
2023-05-10T06:44:10.556Z,2.50
2023-05-10T06:46:38.517Z,2.10
2023-05-10T06:49:06.399Z,2.60
2023-05-10T06:51:34.885Z,2.20
2023-05-10T06:54:53.251Z,2.30
2023-05-10T06:58:05.735Z,2.40
2023-05-10T07:01:32.139Z,2.50
2023-05-10T07:08:28.856Z,2.90
2023-05-10T07:33:17.937Z,2.70
2023-05-10T07:46:31.888Z,3.30
2023-05-10T08:01:13.302Z,2.80
2023-05-10T08:06:09.859Z,2.50
2023-05-10T08:14:02.560Z,2.50
2023-05-10T08:17:27.422Z,2.30
2023-05-10T08:23:55.817Z,2.40
2023-05-10T08:27:14.597Z,3.00
2023-05-10T08:34:01.738Z,2.30
2023-05-10T09:01:31.956Z,1.50
2023-05-10T09:07:12.597Z,1.50
2023-05-10T09:26:40.691Z,1.40
2023-05-10T09:30:32.736Z,1.00
2023-05-10T10:05:22.223Z,1.20
2023-05-10T10:09:13.856Z,1.30
2023-05-10T10:32:59.392Z,1.20
2023-05-10T10:38:55.844Z,1.80
2023-05-10T10:44:59.979Z,1.10
2023-05-10T10:48:07.873Z,1.60
2023-05-10T10:51:04.309Z,1.10
2023-05-10T10:54:13.117Z,0.80
2023-05-10T10:57:42.438Z,1.40
2023-05-10T11:04:02.430Z,1.00
2023-05-10T11:08:41.278Z,1.10
2023-05-10T11:43:31.878Z,1.80
2023-05-10T11:55:36.105Z,1.20
2023-05-10T11:59:11.789Z,1.20
2023-05-10T12:03:01.843Z,0.90
2023-05-10T12:28:23.908Z,1.10
2023-05-10T12:31:48.622Z,1.30
2023-05-10T12:38:44.411Z,1.30
2023-05-10T12:43:18.565Z,1.30
2023-05-10T13:06:47.675Z,0.80
2023-05-10T13:09:16.997Z,0.80
2023-05-10T13:11:52.045Z,1.10
2023-05-10T13:14:21.279Z,0.90
2023-05-10T13:16:48.408Z,1.00
2023-05-10T13:19:17.947Z,1.30
2023-05-10T13:21:44.997Z,1.20
2023-05-10T13:24:14.089Z,1.60
2023-05-10T13:26:55.091Z,1.00
2023-05-10T13:29:49.100Z,0.50
2023-05-10T13:32:17.883Z,1.00
2023-05-10T13:34:46.015Z,0.80
2023-05-10T13:37:13.288Z,0.70
2023-05-10T13:39:44.068Z,0.80
2023-05-10T13:42:24.420Z,0.90
2023-05-10T13:45:31.056Z,1.00
2023-05-10T13:47:58.341Z,1.40
2023-05-10T13:50:35.546Z,0.80
2023-05-10T13:53:09.175Z,0.80
2023-05-10T13:55:39.145Z,1.10
2023-05-10T13:58:07.370Z,0.90
2023-05-10T14:00:35.849Z,0.80
2023-05-10T14:03:06.975Z,0.80
2023-05-10T14:05:34.170Z,1.00
2023-05-10T14:08:01.591Z,1.00
2023-05-10T14:10:28.636Z,0.80
2023-05-10T14:12:56.064Z,0.80
2023-05-10T14:15:23.002Z,1.00
2023-05-10T14:17:49.704Z,1.20
2023-05-10T14:20:16.582Z,0.90
2023-05-10T14:22:43.266Z,0.80
2023-05-10T14:25:13.010Z,1.10
2023-05-10T14:27:39.842Z,0.70
2023-05-10T14:30:08.923Z,0.80
2023-05-10T14:32:38.063Z,0.70
2023-05-10T14:35:06.264Z,0.90
2023-05-10T14:37:34.071Z,0.90
2023-05-10T14:40:00.889Z,0.70
2023-05-10T14:42:28.684Z,0.90
2023-05-10T14:44:56.667Z,0.90
2023-05-10T14:47:23.610Z,0.90
2023-05-10T14:49:50.409Z,0.80
2023-05-10T14:52:17.660Z,0.80
2023-05-10T14:54:44.163Z,0.70
2023-05-10T14:57:10.610Z,0.80
2023-05-10T14:59:37.069Z,1.00
2023-05-10T15:02:37.233Z,1.20
2023-05-10T15:05:24.235Z,1.10
2023-05-10T15:07:51.546Z,0.90
2023-05-10T15:10:18.615Z,0.90
2023-05-10T15:12:45.138Z,0.80
2023-05-10T15:15:11.644Z,0.80
2023-05-10T15:17:38.284Z,0.90
2023-05-10T15:20:05.854Z,0.80
2023-05-10T15:22:34.335Z,0.90
2023-05-10T15:25:01.924Z,0.90
2023-05-10T15:27:28.395Z,0.80
2023-05-10T15:29:55.593Z,0.80
2023-05-10T15:32:22.438Z,0.70
2023-05-10T15:34:49.675Z,0.90
2023-05-10T15:37:16.171Z,1.00
2023-05-10T15:39:42.715Z,0.80
2023-05-10T15:42:09.189Z,1.30
2023-05-10T15:44:38.668Z,0.90
2023-05-10T15:47:06.782Z,0.70
2023-05-10T15:49:34.296Z,0.80
2023-05-10T15:52:17.076Z,0.80
2023-05-10T15:55:12.321Z,0.80
2023-05-10T15:57:42.862Z,0.60
2023-05-10T16:00:12.491Z,0.80
2023-05-10T16:02:41.913Z,0.90
2023-05-10T16:05:13.896Z,0.80
2023-05-10T16:07:44.940Z,1.00
2023-05-10T16:10:12.003Z,1.00
2023-05-10T16:12:58.921Z,0.80
2023-05-10T16:15:27.600Z,0.80
2023-05-10T16:17:54.660Z,1.10
2023-05-10T16:20:27.694Z,0.80
2023-05-10T16:23:14.987Z,0.80
2023-05-10T16:25:42.310Z,0.90
2023-05-10T16:47:09.621Z,1.10
2023-05-10T16:50:17.932Z,2.40
2023-05-10T16:53:17.696Z,1.10
2023-05-10T16:59:54.536Z,1.60
2023-05-10T17:03:39.130Z,1.10
2023-05-10T17:11:52.617Z,1.10
2023-05-10T17:14:53.215Z,1.00
2023-05-10T17:22:11.816Z,1.60
2023-05-10T17:29:44.580Z,1.40
2023-05-10T17:33:04.711Z,1.50
2023-05-10T17:36:49.763Z,2.20
2023-05-10T17:43:46.603Z,1.70
2023-05-10T17:47:18.635Z,1.60
2023-05-10T17:50:57.547Z,2.70
2023-05-10T17:54:28.699Z,2.50
2023-05-10T17:58:14.579Z,1.80
2023-05-10T18:01:47.619Z,1.70
2023-05-10T18:05:00.051Z,2.10
2023-05-10T18:12:18.564Z,2.90
2023-05-10T18:15:42.689Z,2.90
2023-05-10T18:28:45.526Z,2.50
2023-05-10T18:36:00.553Z,2.10
2023-05-10T18:39:19.827Z,2.00
2023-05-10T18:42:33.537Z,2.00
2023-05-10T18:45:49.856Z,2.20
2023-05-10T18:49:27.773Z,1.70
2023-05-10T18:52:56.700Z,2.00
2023-05-10T18:56:33.612Z,2.20
2023-05-10T19:00:14.292Z,2.00
2023-05-10T19:03:50.582Z,2.20
2023-05-10T19:07:28.525Z,2.00
2023-05-10T19:11:13.246Z,1.60
2023-05-10T19:14:40.497Z,3.70
2023-05-10T19:18:10.636Z,2.30
2023-05-10T19:21:10.003Z,2.50
2023-05-10T19:24:48.566Z,2.00
2023-05-10T19:28:31.870Z,2.40
2023-05-10T19:32:43.638Z,2.10
2023-05-10T19:35:51.514Z,1.90
2023-05-10T19:39:12.614Z,2.00
2023-05-10T19:42:58.982Z,2.20
2023-05-10T19:46:12.654Z,5.80
2023-05-10T19:49:25.394Z,3.10
2023-05-10T19:52:34.056Z,2.60
2023-05-10T19:55:21.844Z,3.00
2023-05-10T19:58:32.991Z,2.80
2023-05-10T20:01:41.414Z,2.70
2023-05-10T20:04:49.370Z,2.90
2023-05-10T20:07:59.216Z,3.10
2023-05-10T20:11:07.212Z,2.50
2023-05-10T20:13:56.699Z,2.70
2023-05-10T20:16:38.078Z,2.90
2023-05-10T20:19:46.871Z,2.60
2023-05-10T20:22:44.451Z,1.90
2023-05-10T20:25:34.086Z,2.40
2023-05-10T20:28:28.859Z,2.90
2023-05-10T20:31:16.638Z,2.30
2023-05-10T20:34:24.383Z,2.10
2023-05-10T20:37:29.820Z,2.40
2023-05-10T20:40:38.796Z,2.20
2023-05-10T20:43:46.047Z,2.30
2023-05-10T20:47:12.739Z,2.70
2023-05-10T20:50:15.561Z,2.30
2023-05-10T20:53:43.092Z,2.80
2023-05-10T20:57:31.606Z,2.80
2023-05-10T21:00:26.471Z,2.80
2023-05-10T21:03:43.232Z,2.70
2023-05-10T21:06:40.785Z,2.50
2023-05-10T21:09:51.161Z,2.70
2023-05-10T21:13:25.188Z,2.60
2023-05-10T21:16:48.391Z,2.60
2023-05-10T21:20:27.927Z,2.80
2023-05-10T21:23:44.330Z,2.90
2023-05-10T21:27:24.512Z,3.00
2023-05-10T21:29:55.535Z,2.60
2023-05-10T21:32:36.867Z,3.60
2023-05-10T21:35:08.916Z,3.40
2023-05-10T21:37:35.382Z,3.40
2023-05-10T21:40:03.963Z,3.40
2023-05-10T21:42:31.279Z,3.20
2023-05-10T21:44:57.801Z,3.10
2023-05-10T21:47:24.376Z,3.40
2023-05-10T21:49:51.182Z,2.80
2023-05-10T21:52:17.776Z,2.60
2023-05-10T21:54:44.322Z,2.60
2023-05-10T21:57:11.273Z,3.10
2023-05-10T21:59:38.234Z,2.60
2023-05-10T22:02:04.805Z,3.20
2023-05-10T22:04:31.425Z,3.70
2023-05-10T22:06:57.954Z,3.30
2023-05-10T22:09:24.814Z,3.30
2023-05-10T22:11:51.330Z,2.60
2023-05-10T22:14:17.833Z,3.10
2023-05-10T22:16:44.396Z,3.20
2023-05-10T22:19:11.306Z,3.30
2023-05-10T22:21:37.828Z,3.20
2023-05-10T22:24:04.572Z,2.80
2023-05-10T22:26:31.048Z,3.10
2023-05-10T22:28:57.521Z,2.90
2023-05-10T22:31:24.056Z,3.20
2023-05-10T22:33:50.461Z,2.90
2023-05-10T22:36:16.937Z,3.10
2023-05-10T22:38:43.391Z,2.90
2023-05-10T22:41:09.867Z,2.90
2023-05-10T22:43:36.300Z,2.80
2023-05-10T22:46:02.993Z,2.80
2023-05-10T22:48:29.552Z,3.10
2023-05-10T22:51:36.892Z,2.90
2023-05-10T22:54:44.099Z,2.70
2023-05-10T22:58:30.957Z,2.90
2023-05-10T23:01:58.508Z,3.00
2023-05-10T23:05:09.773Z,2.60
2023-05-10T23:08:50.969Z,2.70
2023-05-10T23:12:16.229Z,2.90
2023-05-10T23:16:11.856Z,3.40
2023-05-10T23:19:16.953Z,3.10
2023-05-10T23:22:50.679Z,3.40
2023-05-10T23:26:16.605Z,3.10
2023-05-10T23:29:49.577Z,3.50
2023-05-10T23:32:57.637Z,3.20
2023-05-10T23:36:54.556Z,2.80
2023-05-10T23:39:36.686Z,2.80
2023-05-10T23:42:35.024Z,3.40
2023-05-10T23:46:20.695Z,3.50
2023-05-10T23:49:44.607Z,3.40
2023-05-10T23:53:26.629Z,3.70
2023-05-10T23:57:23.556Z,4.00
